sensor_id;sensor_type;location;lat;lon;timestamp;P1;durP1;ratioP1;P2;durP2;ratioP2
54037;SDS011;39954;48.844;9.726;2023-06-22T00:00:01;28.83;;;10.80;;
54037;SDS011;39954;48.844;9.726;2023-06-22T00:01:09;32.88;;;11.52;;
54037;SDS011;39954;48.844;9.726;2023-06-22T00:02:14;38.55;;;12.20;;
54037;SDS011;39954;48.844;9.726;2023-06-22T00:03:17;40.53;;;12.68;;
54037;SDS011;39954;48.844;9.726;2023-06-22T00:04:22;38.97;;;11.50;;
54037;SDS011;39954;48.844;9.726;2023-06-22T00:05:24;42.80;;;12.73;;
54037;SDS011;39954;48.844;9.726;2023-06-22T00:06:29;43.80;;;12.88;;
54037;SDS011;39954;48.844;9.726;2023-06-22T00:07:31;36.78;;;11.82;;
54037;SDS011;39954;48.844;9.726;2023-06-22T00:08:39;36.42;;;12.88;;
54037;SDS011;39954;48.844;9.726;2023-06-22T00:09:41;39.88;;;12.32;;
54037;SDS011;39954;48.844;9.726;2023-06-22T00:10:46;85.65;;;16.20;;
54037;SDS011;39954;48.844;9.726;2023-06-22T00:11:48;61.63;;;16.17;;
54037;SDS011;39954;48.844;9.726;2023-06-22T00:12:53;66.60;;;16.25;;
54037;SDS011;39954;48.844;9.726;2023-06-22T00:13:55;57.75;;;14.38;;
54037;SDS011;39954;48.844;9.726;2023-06-22T00:15:00;61.17;;;14.73;;
54037;SDS011;39954;48.844;9.726;2023-06-22T00:16:02;78.55;;;16.60;;
54037;SDS011;39954;48.844;9.726;2023-06-22T00:17:07;51.50;;;13.85;;
54037;SDS011;39954;48.844;9.726;2023-06-22T00:18:09;49.60;;;13.98;;
54037;SDS011;39954;48.844;9.726;2023-06-22T00:19:15;58.03;;;14.50;;
54037;SDS011;39954;48.844;9.726;2023-06-22T00:20:17;47.50;;;13.65;;
54037;SDS011;39954;48.844;9.726;2023-06-22T00:21:22;55.00;;;14.25;;
54037;SDS011;39954;48.844;9.726;2023-06-22T00:22:26;44.60;;;12.77;;
54037;SDS011;39954;48.844;9.726;2023-06-22T00:23:30;65.93;;;15.77;;
54037;SDS011;39954;48.844;9.726;2023-06-22T00:24:39;42.13;;;13.02;;
54037;SDS011;39954;48.844;9.726;2023-06-22T00:25:41;56.75;;;14.63;;
54037;SDS011;39954;48.844;9.726;2023-06-22T00:26:45;60.53;;;14.50;;
54037;SDS011;39954;48.844;9.726;2023-06-22T00:27:48;54.03;;;14.18;;
54037;SDS011;39954;48.844;9.726;2023-06-22T00:28:53;72.78;;;16.85;;
54037;SDS011;39954;48.844;9.726;2023-06-22T00:29:55;58.63;;;14.80;;
54037;SDS011;39954;48.844;9.726;2023-06-22T00:30:59;37.90;;;12.90;;
54037;SDS011;39954;48.844;9.726;2023-06-22T00:32:02;71.88;;;16.08;;
54037;SDS011;39954;48.844;9.726;2023-06-22T00:33:07;34.13;;;11.68;;
54037;SDS011;39954;48.844;9.726;2023-06-22T00:34:09;52.97;;;14.32;;
54037;SDS011;39954;48.844;9.726;2023-06-22T00:35:14;42.40;;;13.32;;
54037;SDS011;39954;48.844;9.726;2023-06-22T00:36:16;32.90;;;12.25;;
54037;SDS011;39954;48.844;9.726;2023-06-22T00:37:21;30.98;;;12.35;;
54037;SDS011;39954;48.844;9.726;2023-06-22T00:38:27;41.00;;;13.40;;
54037;SDS011;39954;48.844;9.726;2023-06-22T00:39:31;38.28;;;12.63;;
54037;SDS011;39954;48.844;9.726;2023-06-22T00:40:37;55.38;;;15.02;;
54037;SDS011;39954;48.844;9.726;2023-06-22T00:41:42;40.22;;;13.60;;
54037;SDS011;39954;48.844;9.726;2023-06-22T00:42:44;52.45;;;15.15;;
54037;SDS011;39954;48.844;9.726;2023-06-22T00:43:49;58.15;;;16.23;;
54037;SDS011;39954;48.844;9.726;2023-06-22T00:44:54;42.50;;;14.65;;
54037;SDS011;39954;48.844;9.726;2023-06-22T00:45:56;74.95;;;18.23;;
54037;SDS011;39954;48.844;9.726;2023-06-22T00:47:01;47.80;;;14.90;;
54037;SDS011;39954;48.844;9.726;2023-06-22T00:48:03;38.95;;;13.98;;
54037;SDS011;39954;48.844;9.726;2023-06-22T00:49:08;40.25;;;14.88;;
54037;SDS011;39954;48.844;9.726;2023-06-22T00:50:12;42.00;;;15.20;;
54037;SDS011;39954;48.844;9.726;2023-06-22T00:51:22;51.38;;;14.80;;
54037;SDS011;39954;48.844;9.726;2023-06-22T00:52:25;52.88;;;14.25;;
54037;SDS011;39954;48.844;9.726;2023-06-22T00:53:32;51.90;;;14.32;;
54037;SDS011;39954;48.844;9.726;2023-06-22T00:54:36;46.92;;;13.73;;
54037;SDS011;39954;48.844;9.726;2023-06-22T00:55:44;65.50;;;15.32;;
54037;SDS011;39954;48.844;9.726;2023-06-22T00:56:53;64.38;;;14.57;;
54037;SDS011;39954;48.844;9.726;2023-06-22T00:57:57;45.70;;;13.85;;
54037;SDS011;39954;48.844;9.726;2023-06-22T00:59:02;51.95;;;14.68;;
54037;SDS011;39954;48.844;9.726;2023-06-22T01:00:05;50.17;;;14.27;;
54037;SDS011;39954;48.844;9.726;2023-06-22T01:01:13;44.22;;;14.02;;
54037;SDS011;39954;48.844;9.726;2023-06-22T01:02:18;44.72;;;13.77;;
54037;SDS011;39954;48.844;9.726;2023-06-22T01:03:20;53.53;;;13.65;;
54037;SDS011;39954;48.844;9.726;2023-06-22T01:04:33;48.92;;;16.00;;
54037;SDS011;39954;48.844;9.726;2023-06-22T01:05:37;36.35;;;13.43;;
54037;SDS011;39954;48.844;9.726;2023-06-22T01:06:45;41.38;;;15.13;;
54037;SDS011;39954;48.844;9.726;2023-06-22T01:07:59;61.20;;;15.18;;
54037;SDS011;39954;48.844;9.726;2023-06-22T01:09:11;45.95;;;13.98;;
54037;SDS011;39954;48.844;9.726;2023-06-22T01:10:18;44.67;;;13.90;;
54037;SDS011;39954;48.844;9.726;2023-06-22T01:11:35;63.85;;;15.18;;
54037;SDS011;39954;48.844;9.726;2023-06-22T01:12:44;45.83;;;12.95;;
54037;SDS011;39954;48.844;9.726;2023-06-22T01:13:54;70.63;;;16.08;;
54037;SDS011;39954;48.844;9.726;2023-06-22T01:15:02;38.00;;;12.82;;
54037;SDS011;39954;48.844;9.726;2023-06-22T01:16:14;38.72;;;13.63;;
54037;SDS011;39954;48.844;9.726;2023-06-22T01:17:24;30.80;;;12.02;;
54037;SDS011;39954;48.844;9.726;2023-06-22T01:18:30;40.35;;;12.30;;
54037;SDS011;39954;48.844;9.726;2023-06-22T01:19:39;82.68;;;17.67;;
54037;SDS011;39954;48.844;9.726;2023-06-22T01:20:48;58.20;;;15.23;;
54037;SDS011;39954;48.844;9.726;2023-06-22T01:21:54;65.88;;;16.33;;
54037;SDS011;39954;48.844;9.726;2023-06-22T01:23:02;80.32;;;16.80;;
54037;SDS011;39954;48.844;9.726;2023-06-22T01:24:16;43.63;;;13.60;;
54037;SDS011;39954;48.844;9.726;2023-06-22T01:25:26;47.45;;;14.32;;
54037;SDS011;39954;48.844;9.726;2023-06-22T01:26:38;55.92;;;14.30;;
54037;SDS011;39954;48.844;9.726;2023-06-22T01:27:47;63.15;;;15.00;;
54037;SDS011;39954;48.844;9.726;2023-06-22T01:29:05;41.08;;;12.80;;
54037;SDS011;39954;48.844;9.726;2023-06-22T01:30:10;41.30;;;12.60;;
54037;SDS011;39954;48.844;9.726;2023-06-22T01:31:16;52.20;;;13.25;;
54037;SDS011;39954;48.844;9.726;2023-06-22T01:32:21;48.85;;;12.70;;
54037;SDS011;39954;48.844;9.726;2023-06-22T01:33:26;36.15;;;11.35;;
54037;SDS011;39954;48.844;9.726;2023-06-22T01:34:29;44.63;;;13.20;;
54037;SDS011;39954;48.844;9.726;2023-06-22T01:35:36;43.25;;;11.85;;
54037;SDS011;39954;48.844;9.726;2023-06-22T01:36:39;32.58;;;11.88;;
54037;SDS011;39954;48.844;9.726;2023-06-22T01:37:45;51.33;;;12.85;;
54037;SDS011;39954;48.844;9.726;2023-06-22T01:38:48;56.33;;;14.15;;
54037;SDS011;39954;48.844;9.726;2023-06-22T01:39:53;62.50;;;14.27;;
54037;SDS011;39954;48.844;9.726;2023-06-22T01:40:57;64.13;;;14.35;;
54037;SDS011;39954;48.844;9.726;2023-06-22T01:42:03;44.25;;;12.38;;
54037;SDS011;39954;48.844;9.726;2023-06-22T01:43:07;37.60;;;11.00;;
54037;SDS011;39954;48.844;9.726;2023-06-22T01:44:15;45.60;;;13.38;;
54037;SDS011;39954;48.844;9.726;2023-06-22T01:45:17;107.18;;;18.02;;
54037;SDS011;39954;48.844;9.726;2023-06-22T01:46:23;53.30;;;13.45;;
54037;SDS011;39954;48.844;9.726;2023-06-22T01:47:26;70.13;;;15.23;;
54037;SDS011;39954;48.844;9.726;2023-06-22T01:48:31;45.25;;;12.23;;
54037;SDS011;39954;48.844;9.726;2023-06-22T01:49:34;48.50;;;12.15;;
54037;SDS011;39954;48.844;9.726;2023-06-22T01:50:39;78.00;;;15.00;;
54037;SDS011;39954;48.844;9.726;2023-06-22T01:51:42;67.20;;;13.93;;
54037;SDS011;39954;48.844;9.726;2023-06-22T01:52:46;56.55;;;13.30;;
54037;SDS011;39954;48.844;9.726;2023-06-22T01:53:48;67.32;;;14.25;;
54037;SDS011;39954;48.844;9.726;2023-06-22T01:54:53;75.78;;;14.50;;
54037;SDS011;39954;48.844;9.726;2023-06-22T01:55:55;59.33;;;14.18;;
54037;SDS011;39954;48.844;9.726;2023-06-22T01:57:00;61.45;;;14.43;;
54037;SDS011;39954;48.844;9.726;2023-06-22T01:58:02;69.95;;;15.02;;
54037;SDS011;39954;48.844;9.726;2023-06-22T01:59:09;52.47;;;13.40;;
54037;SDS011;39954;48.844;9.726;2023-06-22T02:00:20;71.75;;;14.07;;
54037;SDS011;39954;48.844;9.726;2023-06-22T02:01:31;47.08;;;11.70;;
54037;SDS011;39954;48.844;9.726;2023-06-22T02:02:43;37.88;;;11.30;;
54037;SDS011;39954;48.844;9.726;2023-06-22T02:03:58;62.50;;;13.30;;
54037;SDS011;39954;48.844;9.726;2023-06-22T02:05:06;65.63;;;14.70;;
54037;SDS011;39954;48.844;9.726;2023-06-22T02:06:14;52.95;;;12.48;;
54037;SDS011;39954;48.844;9.726;2023-06-22T02:07:20;40.10;;;11.73;;
54037;SDS011;39954;48.844;9.726;2023-06-22T02:08:28;40.53;;;11.77;;
54037;SDS011;39954;48.844;9.726;2023-06-22T02:09:34;60.17;;;13.80;;
54037;SDS011;39954;48.844;9.726;2023-06-22T02:10:41;55.10;;;13.77;;
54037;SDS011;39954;48.844;9.726;2023-06-22T02:11:45;50.95;;;13.68;;
54037;SDS011;39954;48.844;9.726;2023-06-22T02:12:53;73.30;;;15.63;;
54037;SDS011;39954;48.844;9.726;2023-06-22T02:13:56;52.50;;;13.82;;
54037;SDS011;39954;48.844;9.726;2023-06-22T02:15:02;64.95;;;14.18;;
54037;SDS011;39954;48.844;9.726;2023-06-22T02:16:08;43.53;;;12.55;;
54037;SDS011;39954;48.844;9.726;2023-06-22T02:17:14;44.50;;;12.38;;
54037;SDS011;39954;48.844;9.726;2023-06-22T02:18:16;46.30;;;13.55;;
54037;SDS011;39954;48.844;9.726;2023-06-22T02:19:22;47.95;;;13.02;;
54037;SDS011;39954;48.844;9.726;2023-06-22T02:20:25;45.78;;;14.07;;
54037;SDS011;39954;48.844;9.726;2023-06-22T02:21:30;41.03;;;14.18;;
54037;SDS011;39954;48.844;9.726;2023-06-22T02:22:32;51.00;;;14.95;;
54037;SDS011;39954;48.844;9.726;2023-06-22T02:23:37;41.70;;;13.48;;
54037;SDS011;39954;48.844;9.726;2023-06-22T02:24:39;40.90;;;14.07;;
54037;SDS011;39954;48.844;9.726;2023-06-22T02:25:44;46.58;;;14.45;;
54037;SDS011;39954;48.844;9.726;2023-06-22T02:26:47;44.92;;;14.07;;
54037;SDS011;39954;48.844;9.726;2023-06-22T02:27:52;66.25;;;15.48;;
54037;SDS011;39954;48.844;9.726;2023-06-22T02:28:54;71.40;;;16.48;;
54037;SDS011;39954;48.844;9.726;2023-06-22T02:29:59;85.43;;;16.88;;
54037;SDS011;39954;48.844;9.726;2023-06-22T02:31:01;56.55;;;14.98;;
54037;SDS011;39954;48.844;9.726;2023-06-22T02:32:08;46.20;;;14.75;;
54037;SDS011;39954;48.844;9.726;2023-06-22T02:33:11;67.32;;;16.42;;
54037;SDS011;39954;48.844;9.726;2023-06-22T02:34:16;52.17;;;15.35;;
54037;SDS011;39954;48.844;9.726;2023-06-22T02:35:20;62.58;;;16.17;;
54037;SDS011;39954;48.844;9.726;2023-06-22T02:36:24;65.43;;;15.38;;
54037;SDS011;39954;48.844;9.726;2023-06-22T02:37:28;53.83;;;15.20;;
54037;SDS011;39954;48.844;9.726;2023-06-22T02:38:33;48.10;;;15.32;;
54037;SDS011;39954;48.844;9.726;2023-06-22T02:39:36;87.35;;;18.42;;
54037;SDS011;39954;48.844;9.726;2023-06-22T02:40:41;61.00;;;16.23;;
54037;SDS011;39954;48.844;9.726;2023-06-22T02:41:44;65.82;;;16.33;;
54037;SDS011;39954;48.844;9.726;2023-06-22T02:42:48;54.20;;;15.38;;
54037;SDS011;39954;48.844;9.726;2023-06-22T02:43:50;68.10;;;16.70;;
54037;SDS011;39954;48.844;9.726;2023-06-22T02:44:55;72.13;;;17.33;;
54037;SDS011;39954;48.844;9.726;2023-06-22T02:45:57;83.30;;;17.70;;
54037;SDS011;39954;48.844;9.726;2023-06-22T02:47:02;76.30;;;17.73;;
54037;SDS011;39954;48.844;9.726;2023-06-22T02:48:07;106.30;;;19.80;;
54037;SDS011;39954;48.844;9.726;2023-06-22T02:49:12;60.42;;;16.67;;
54037;SDS011;39954;48.844;9.726;2023-06-22T02:50:14;60.20;;;16.17;;
54037;SDS011;39954;48.844;9.726;2023-06-22T02:51:19;52.35;;;16.13;;
54037;SDS011;39954;48.844;9.726;2023-06-22T02:52:22;60.15;;;16.67;;
54037;SDS011;39954;48.844;9.726;2023-06-22T02:53:26;47.05;;;15.23;;
54037;SDS011;39954;48.844;9.726;2023-06-22T02:54:28;48.80;;;15.40;;
54037;SDS011;39954;48.844;9.726;2023-06-22T02:55:34;68.55;;;16.77;;
54037;SDS011;39954;48.844;9.726;2023-06-22T02:56:36;40.97;;;14.57;;
54037;SDS011;39954;48.844;9.726;2023-06-22T02:57:42;65.10;;;16.45;;
54037;SDS011;39954;48.844;9.726;2023-06-22T02:58:45;86.68;;;18.33;;
54037;SDS011;39954;48.844;9.726;2023-06-22T02:59:50;58.72;;;15.63;;
54037;SDS011;39954;48.844;9.726;2023-06-22T03:00:52;67.38;;;17.15;;
54037;SDS011;39954;48.844;9.726;2023-06-22T03:01:57;81.88;;;18.88;;
54037;SDS011;39954;48.844;9.726;2023-06-22T03:02:59;79.43;;;17.80;;
54037;SDS011;39954;48.844;9.726;2023-06-22T03:04:06;85.45;;;18.83;;
54037;SDS011;39954;48.844;9.726;2023-06-22T03:05:09;58.38;;;16.00;;
54037;SDS011;39954;48.844;9.726;2023-06-22T03:06:15;58.92;;;16.48;;
54037;SDS011;39954;48.844;9.726;2023-06-22T03:07:17;65.53;;;17.25;;
54037;SDS011;39954;48.844;9.726;2023-06-22T03:08:21;47.25;;;16.33;;
54037;SDS011;39954;48.844;9.726;2023-06-22T03:09:24;55.10;;;15.85;;
54037;SDS011;39954;48.844;9.726;2023-06-22T03:10:29;52.63;;;15.70;;
54037;SDS011;39954;48.844;9.726;2023-06-22T03:11:32;48.53;;;15.38;;
54037;SDS011;39954;48.844;9.726;2023-06-22T03:12:37;57.08;;;16.23;;
54037;SDS011;39954;48.844;9.726;2023-06-22T03:13:39;63.67;;;15.80;;
54037;SDS011;39954;48.844;9.726;2023-06-22T03:14:47;63.50;;;16.48;;
54037;SDS011;39954;48.844;9.726;2023-06-22T03:15:49;53.42;;;15.38;;
54037;SDS011;39954;48.844;9.726;2023-06-22T03:16:54;97.22;;;19.75;;
54037;SDS011;39954;48.844;9.726;2023-06-22T03:17:56;79.38;;;18.20;;
54037;SDS011;39954;48.844;9.726;2023-06-22T03:19:01;65.90;;;14.10;;
54037;SDS011;39954;48.844;9.726;2023-06-22T03:20:06;121.78;;;20.80;;
54037;SDS011;39954;48.844;9.726;2023-06-22T03:21:13;70.80;;;17.20;;
54037;SDS011;39954;48.844;9.726;2023-06-22T03:22:16;60.60;;;15.55;;
54037;SDS011;39954;48.844;9.726;2023-06-22T03:23:21;58.45;;;16.25;;
54037;SDS011;39954;48.844;9.726;2023-06-22T03:24:26;53.58;;;15.57;;
54037;SDS011;39954;48.844;9.726;2023-06-22T03:25:30;43.17;;;14.65;;
54037;SDS011;39954;48.844;9.726;2023-06-22T03:26:35;45.33;;;15.00;;
54037;SDS011;39954;48.844;9.726;2023-06-22T03:27:37;43.00;;;15.20;;
54037;SDS011;39954;48.844;9.726;2023-06-22T03:28:42;55.90;;;17.13;;
54037;SDS011;39954;48.844;9.726;2023-06-22T03:29:44;64.22;;;17.90;;
54037;SDS011;39954;48.844;9.726;2023-06-22T03:30:49;56.63;;;18.63;;
54037;SDS011;39954;48.844;9.726;2023-06-22T03:31:51;52.45;;;16.95;;
54037;SDS011;39954;48.844;9.726;2023-06-22T03:32:56;91.95;;;22.83;;
54037;SDS011;39954;48.844;9.726;2023-06-22T03:33:58;68.57;;;19.63;;
54037;SDS011;39954;48.844;9.726;2023-06-22T03:35:06;89.07;;;21.55;;
54037;SDS011;39954;48.844;9.726;2023-06-22T03:36:08;87.03;;;21.58;;
54037;SDS011;39954;48.844;9.726;2023-06-22T03:37:13;57.50;;;19.92;;
54037;SDS011;39954;48.844;9.726;2023-06-22T03:38:16;85.97;;;21.23;;
54037;SDS011;39954;48.844;9.726;2023-06-22T03:39:20;86.10;;;21.38;;
54037;SDS011;39954;48.844;9.726;2023-06-22T03:40:22;56.83;;;19.35;;
54037;SDS011;39954;48.844;9.726;2023-06-22T03:41:28;82.47;;;22.13;;
54037;SDS011;39954;48.844;9.726;2023-06-22T03:42:30;51.25;;;19.30;;
54037;SDS011;39954;48.844;9.726;2023-06-22T03:43:34;44.42;;;18.40;;
54037;SDS011;39954;48.844;9.726;2023-06-22T03:44:37;89.82;;;22.25;;
54037;SDS011;39954;48.844;9.726;2023-06-22T03:45:41;72.32;;;20.92;;
54037;SDS011;39954;48.844;9.726;2023-06-22T03:46:43;68.95;;;20.45;;
54037;SDS011;39954;48.844;9.726;2023-06-22T03:47:48;66.38;;;21.25;;
54037;SDS011;39954;48.844;9.726;2023-06-22T03:48:50;58.55;;;20.05;;
54037;SDS011;39954;48.844;9.726;2023-06-22T03:49:55;73.95;;;22.02;;
54037;SDS011;39954;48.844;9.726;2023-06-22T03:51:01;86.13;;;22.95;;
54037;SDS011;39954;48.844;9.726;2023-06-22T03:52:06;77.75;;;21.60;;
54037;SDS011;39954;48.844;9.726;2023-06-22T03:53:09;77.03;;;21.58;;
54037;SDS011;39954;48.844;9.726;2023-06-22T03:54:14;62.88;;;20.45;;
54037;SDS011;39954;48.844;9.726;2023-06-22T03:55:17;83.07;;;22.35;;
54037;SDS011;39954;48.844;9.726;2023-06-22T03:56:21;64.93;;;20.92;;
54037;SDS011;39954;48.844;9.726;2023-06-22T03:57:23;63.40;;;21.50;;
54037;SDS011;39954;48.844;9.726;2023-06-22T03:58:28;89.32;;;22.02;;
54037;SDS011;39954;48.844;9.726;2023-06-22T03:59:34;73.03;;;20.77;;
54037;SDS011;39954;48.844;9.726;2023-06-22T04:00:39;59.65;;;20.20;;
54037;SDS011;39954;48.844;9.726;2023-06-22T04:01:41;64.35;;;20.27;;
54037;SDS011;39954;48.844;9.726;2023-06-22T04:02:46;87.22;;;22.52;;
54037;SDS011;39954;48.844;9.726;2023-06-22T04:03:48;61.45;;;19.77;;
54037;SDS011;39954;48.844;9.726;2023-06-22T04:04:53;69.20;;;20.75;;
54037;SDS011;39954;48.844;9.726;2023-06-22T04:05:55;78.05;;;20.83;;
54037;SDS011;39954;48.844;9.726;2023-06-22T04:07:03;87.82;;;21.83;;
54037;SDS011;39954;48.844;9.726;2023-06-22T04:08:07;90.88;;;22.48;;
54037;SDS011;39954;48.844;9.726;2023-06-22T04:09:12;69.75;;;19.88;;
54037;SDS011;39954;48.844;9.726;2023-06-22T04:10:15;59.58;;;19.33;;
54037;SDS011;39954;48.844;9.726;2023-06-22T04:11:19;65.68;;;19.73;;
54037;SDS011;39954;48.844;9.726;2023-06-22T04:12:21;63.38;;;19.30;;
54037;SDS011;39954;48.844;9.726;2023-06-22T04:13:26;51.30;;;18.05;;
54037;SDS011;39954;48.844;9.726;2023-06-22T04:14:28;63.78;;;19.10;;
54037;SDS011;39954;48.844;9.726;2023-06-22T04:15:33;46.38;;;17.67;;
54037;SDS011;39954;48.844;9.726;2023-06-22T04:16:35;54.28;;;18.20;;
54037;SDS011;39954;48.844;9.726;2023-06-22T04:17:40;72.50;;;20.33;;
54037;SDS011;39954;48.844;9.726;2023-06-22T04:18:42;50.42;;;17.00;;
54037;SDS011;39954;48.844;9.726;2023-06-22T04:19:47;50.90;;;17.60;;
54037;SDS011;39954;48.844;9.726;2023-06-22T04:20:49;80.97;;;20.05;;
54037;SDS011;39954;48.844;9.726;2023-06-22T04:21:53;93.78;;;20.42;;
54037;SDS011;39954;48.844;9.726;2023-06-22T04:22:58;68.00;;;18.55;;
54037;SDS011;39954;48.844;9.726;2023-06-22T04:24:03;71.95;;;19.52;;
54037;SDS011;39954;48.844;9.726;2023-06-22T04:25:07;89.47;;;19.77;;
54037;SDS011;39954;48.844;9.726;2023-06-22T04:26:12;93.55;;;20.52;;
54037;SDS011;39954;48.844;9.726;2023-06-22T04:27:15;59.22;;;18.50;;
54037;SDS011;39954;48.844;9.726;2023-06-22T04:28:21;85.95;;;19.52;;
54037;SDS011;39954;48.844;9.726;2023-06-22T04:29:23;62.47;;;18.85;;
54037;SDS011;39954;48.844;9.726;2023-06-22T04:30:32;62.45;;;17.25;;
54037;SDS011;39954;48.844;9.726;2023-06-22T04:31:35;68.00;;;17.77;;
54037;SDS011;39954;48.844;9.726;2023-06-22T04:32:40;48.70;;;16.10;;
54037;SDS011;39954;48.844;9.726;2023-06-22T04:33:42;55.42;;;15.40;;
54037;SDS011;39954;48.844;9.726;2023-06-22T04:34:47;45.08;;;16.00;;
54037;SDS011;39954;48.844;9.726;2023-06-22T04:35:49;52.85;;;15.80;;
54037;SDS011;39954;48.844;9.726;2023-06-22T04:36:54;55.65;;;16.85;;
54037;SDS011;39954;48.844;9.726;2023-06-22T04:37:59;69.47;;;17.58;;
54037;SDS011;39954;48.844;9.726;2023-06-22T04:39:05;72.75;;;17.70;;
54037;SDS011;39954;48.844;9.726;2023-06-22T04:40:08;70.70;;;18.33;;
54037;SDS011;39954;48.844;9.726;2023-06-22T04:41:16;55.33;;;16.23;;
54037;SDS011;39954;48.844;9.726;2023-06-22T04:42:25;53.47;;;15.73;;
54037;SDS011;39954;48.844;9.726;2023-06-22T04:43:33;43.58;;;16.33;;
54037;SDS011;39954;48.844;9.726;2023-06-22T04:44:35;44.25;;;16.55;;
54037;SDS011;39954;48.844;9.726;2023-06-22T04:45:41;63.83;;;16.67;;
54037;SDS011;39954;48.844;9.726;2023-06-22T04:46:43;56.45;;;16.55;;
54037;SDS011;39954;48.844;9.726;2023-06-22T04:47:55;44.45;;;15.80;;
54037;SDS011;39954;48.844;9.726;2023-06-22T04:48:57;51.38;;;15.55;;
54037;SDS011;39954;48.844;9.726;2023-06-22T04:50:02;71.88;;;17.35;;
54037;SDS011;39954;48.844;9.726;2023-06-22T04:51:07;67.18;;;17.88;;
54037;SDS011;39954;48.844;9.726;2023-06-22T04:52:13;84.68;;;18.17;;
54037;SDS011;39954;48.844;9.726;2023-06-22T04:53:18;53.83;;;15.85;;
54037;SDS011;39954;48.844;9.726;2023-06-22T04:54:22;50.88;;;15.18;;
54037;SDS011;39954;48.844;9.726;2023-06-22T04:55:24;53.22;;;16.38;;
54037;SDS011;39954;48.844;9.726;2023-06-22T04:56:29;48.45;;;15.20;;
54037;SDS011;39954;48.844;9.726;2023-06-22T04:57:32;51.47;;;16.35;;
54037;SDS011;39954;48.844;9.726;2023-06-22T04:58:36;65.32;;;15.80;;
54037;SDS011;39954;48.844;9.726;2023-06-22T04:59:39;45.63;;;13.95;;
54037;SDS011;39954;48.844;9.726;2023-06-22T05:00:45;50.13;;;15.23;;
54037;SDS011;39954;48.844;9.726;2023-06-22T05:01:48;43.90;;;14.75;;
54037;SDS011;39954;48.844;9.726;2023-06-22T05:02:54;48.05;;;13.85;;
54037;SDS011;39954;48.844;9.726;2023-06-22T05:04:19;57.45;;;15.07;;
54037;SDS011;39954;48.844;9.726;2023-06-22T05:05:24;58.47;;;14.88;;
54037;SDS011;39954;48.844;9.726;2023-06-22T05:06:29;59.90;;;14.93;;
54037;SDS011;39954;48.844;9.726;2023-06-22T05:07:31;82.68;;;16.55;;
54037;SDS011;39954;48.844;9.726;2023-06-22T05:08:39;49.35;;;14.27;;
54037;SDS011;39954;48.844;9.726;2023-06-22T05:09:44;63.15;;;15.43;;
54037;SDS011;39954;48.844;9.726;2023-06-22T05:10:46;67.47;;;15.27;;
54037;SDS011;39954;48.844;9.726;2023-06-22T05:12:06;71.13;;;15.27;;
54037;SDS011;39954;48.844;9.726;2023-06-22T05:13:13;101.70;;;18.48;;
54037;SDS011;39954;48.844;9.726;2023-06-22T05:14:15;58.58;;;14.30;;
54037;SDS011;39954;48.844;9.726;2023-06-22T05:15:20;60.72;;;14.63;;
54037;SDS011;39954;48.844;9.726;2023-06-22T05:16:23;51.83;;;13.65;;
54037;SDS011;39954;48.844;9.726;2023-06-22T05:17:28;36.85;;;12.00;;
54037;SDS011;39954;48.844;9.726;2023-06-22T05:18:31;54.67;;;14.05;;
54037;SDS011;39954;48.844;9.726;2023-06-22T05:19:36;67.90;;;14.73;;
54037;SDS011;39954;48.844;9.726;2023-06-22T05:20:41;48.83;;;13.48;;
54037;SDS011;39954;48.844;9.726;2023-06-22T05:21:46;48.78;;;18.65;;
54037;SDS011;39954;48.844;9.726;2023-06-22T05:22:50;72.05;;;15.82;;
54037;SDS011;39954;48.844;9.726;2023-06-22T05:23:55;36.45;;;13.10;;
54037;SDS011;39954;48.844;9.726;2023-06-22T05:25:04;143.55;;;18.65;;
54037;SDS011;39954;48.844;9.726;2023-06-22T05:26:07;76.63;;;17.17;;
54037;SDS011;39954;48.844;9.726;2023-06-22T05:27:12;77.93;;;15.60;;
54037;SDS011;39954;48.844;9.726;2023-06-22T05:28:15;71.60;;;14.73;;
54037;SDS011;39954;48.844;9.726;2023-06-22T05:29:24;77.47;;;14.40;;
54037;SDS011;39954;48.844;9.726;2023-06-22T05:30:28;56.22;;;12.70;;
54037;SDS011;39954;48.844;9.726;2023-06-22T05:31:33;36.17;;;10.73;;
54037;SDS011;39954;48.844;9.726;2023-06-22T05:32:35;37.22;;;11.07;;
54037;SDS011;39954;48.844;9.726;2023-06-22T05:33:40;33.92;;;10.88;;
54037;SDS011;39954;48.844;9.726;2023-06-22T05:34:43;37.45;;;10.52;;
54037;SDS011;39954;48.844;9.726;2023-06-22T05:35:47;38.83;;;9.85;;
54037;SDS011;39954;48.844;9.726;2023-06-22T05:36:49;41.30;;;10.82;;
54037;SDS011;39954;48.844;9.726;2023-06-22T05:37:54;44.60;;;10.30;;
54037;SDS011;39954;48.844;9.726;2023-06-22T05:38:59;46.88;;;11.45;;
54037;SDS011;39954;48.844;9.726;2023-06-22T05:40:15;70.88;;;12.63;;
54037;SDS011;39954;48.844;9.726;2023-06-22T05:41:17;46.20;;;10.73;;
54037;SDS011;39954;48.844;9.726;2023-06-22T05:42:22;42.85;;;10.38;;
54037;SDS011;39954;48.844;9.726;2023-06-22T05:43:26;42.22;;;10.32;;
54037;SDS011;39954;48.844;9.726;2023-06-22T05:44:31;30.63;;;9.23;;
54037;SDS011;39954;48.844;9.726;2023-06-22T05:45:35;41.13;;;10.65;;
54037;SDS011;39954;48.844;9.726;2023-06-22T05:46:40;89.25;;;13.82;;
54037;SDS011;39954;48.844;9.726;2023-06-22T05:47:46;48.00;;;9.45;;
54037;SDS011;39954;48.844;9.726;2023-06-22T05:48:50;38.03;;;9.27;;
54037;SDS011;39954;48.844;9.726;2023-06-22T05:49:53;84.72;;;13.10;;
54037;SDS011;39954;48.844;9.726;2023-06-22T05:50:58;36.70;;;9.75;;
54037;SDS011;39954;48.844;9.726;2023-06-22T05:52:00;78.85;;;13.43;;
54037;SDS011;39954;48.844;9.726;2023-06-22T05:53:05;69.00;;;11.70;;
54037;SDS011;39954;48.844;9.726;2023-06-22T05:54:11;71.15;;;11.60;;
54037;SDS011;39954;48.844;9.726;2023-06-22T05:55:17;97.57;;;14.18;;
54037;SDS011;39954;48.844;9.726;2023-06-22T05:56:20;36.83;;;9.48;;
54037;SDS011;39954;48.844;9.726;2023-06-22T05:57:25;54.33;;;10.18;;
54037;SDS011;39954;48.844;9.726;2023-06-22T05:58:27;50.92;;;10.57;;
54037;SDS011;39954;48.844;9.726;2023-06-22T05:59:31;38.20;;;9.07;;
54037;SDS011;39954;48.844;9.726;2023-06-22T06:00:34;53.30;;;9.82;;
54037;SDS011;39954;48.844;9.726;2023-06-22T06:01:39;51.35;;;9.95;;
54037;SDS011;39954;48.844;9.726;2023-06-22T06:02:41;59.17;;;11.02;;
54037;SDS011;39954;48.844;9.726;2023-06-22T06:03:46;47.25;;;9.40;;
54037;SDS011;39954;48.844;9.726;2023-06-22T06:04:51;65.65;;;11.15;;
54037;SDS011;39954;48.844;9.726;2023-06-22T06:05:54;39.72;;;9.15;;
54037;SDS011;39954;48.844;9.726;2023-06-22T06:06:59;43.90;;;9.20;;
54037;SDS011;39954;48.844;9.726;2023-06-22T06:08:02;68.32;;;11.02;;
54037;SDS011;39954;48.844;9.726;2023-06-22T06:09:08;62.95;;;11.07;;
54037;SDS011;39954;48.844;9.726;2023-06-22T06:10:13;69.57;;;11.05;;
54037;SDS011;39954;48.844;9.726;2023-06-22T06:11:18;128.10;;;15.90;;
54037;SDS011;39954;48.844;9.726;2023-06-22T06:12:22;32.28;;;8.27;;
54037;SDS011;39954;48.844;9.726;2023-06-22T06:13:27;45.70;;;9.20;;
54037;SDS011;39954;48.844;9.726;2023-06-22T06:14:32;45.15;;;10.27;;
54037;SDS011;39954;48.844;9.726;2023-06-22T06:15:34;45.65;;;9.65;;
54037;SDS011;39954;48.844;9.726;2023-06-22T06:16:40;63.35;;;10.65;;
54037;SDS011;39954;48.844;9.726;2023-06-22T06:17:45;73.40;;;11.52;;
54037;SDS011;39954;48.844;9.726;2023-06-22T06:18:50;64.97;;;10.85;;